Time;durP1;ratioP1;P1;durP2;ratioP2;P2;SDS_P1;SDS_P2;PMS_P1;PMS_P2;Temp;Humidity;BMP_temperature;BMP_pressure;BME280_temperature;BME280_humidity;BME280_pressure;Samples;Min_cycle;Max_cycle;Signal;HPM_P1;HPM_P2
2022/05/09 00:01:32;;;;;;;;;;;7.30;99.90;;;;;;4984904;28;19914;-59
2022/05/09 00:03:58;;;;;;;;;;;7.30;99.90;;;;;;4988294;28;19941;-58
2022/05/09 00:06:24;;;;;;;;;;;7.50;99.90;;;;;;4985713;28;19916;-58
2022/05/09 00:08:49;;;;;;;;;;;7.50;99.90;;;;;;4985938;28;20260;-58
2022/05/09 00:11:15;;;;;;;;;;;7.40;99.90;;;;;;4985231;28;20305;-59
2022/05/09 00:13:40;;;;;;;;;;;7.30;99.90;;;;;;4984835;28;20369;-59
2022/05/09 00:16:06;;;;;;;;;;;7.30;99.90;;;;;;4984614;28;20370;-59
2022/05/09 00:18:32;;;;;;;;;;;7.30;99.90;;;;;;4984987;28;19909;-59
2022/05/09 00:20:57;;;;;;;;;;;7.40;99.90;;;;;;4985441;28;19909;-58
2022/05/09 00:23:23;;;;;;;;;;;7.40;99.90;;;;;;4986029;28;19916;-58
2022/05/09 00:25:48;;;;;;;;;;;7.30;99.90;;;;;;4985523;28;19916;-58
2022/05/09 00:28:15;;;;;;;;;;;7.20;99.90;;;;;;4983209;28;19910;-59
2022/05/09 00:30:40;;;;;;;;;;;7.10;99.90;;;;;;4983329;28;20190;-58
2022/05/09 00:33:06;;;;;;;;;;;7.10;99.90;;;;;;4984376;28;19931;-58
2022/05/09 00:35:31;;;;;;;;;;;7.10;99.90;;;;;;4984525;28;19936;-59
2022/05/09 00:37:57;;;;;;;;;;;7.10;99.90;;;;;;4985563;28;20027;-59
2022/05/09 00:40:22;;;;;;;;;;;7.10;99.90;;;;;;4986212;28;20337;-58
2022/05/09 00:42:52;;;;;;;;;;;7.00;99.90;;;;;;4987998;28;20229;-59
2022/05/09 00:45:19;;;;;;;;;;;7.00;99.90;;;;;;4986301;28;19910;-59
2022/05/09 00:47:45;;;;;;;;;;;7.00;99.90;;;;;;4985166;28;19956;-58
2022/05/09 00:50:14;;;;;;;;;;;6.90;99.90;;;;;;4986029;28;19905;-59
2022/05/09 00:52:39;;;;;;;;;;;6.90;99.90;;;;;;4987185;28;19960;-58
2022/05/09 00:55:10;;;;;;;;;;;6.80;99.90;;;;;;4985595;28;19913;-59
2022/05/09 00:57:50;;;;;;;;;;;6.80;99.90;;;;;;4984367;28;19913;-59
2022/05/09 01:00:17;;;;;;;;;;;6.80;99.90;;;;;;4981436;28;20874;-58
2022/05/09 01:02:49;;;;;;;;;;;6.80;99.90;;;;;;4983215;28;20315;-59
2022/05/09 01:05:15;;;;;;;;;;;6.80;99.90;;;;;;4983642;28;19946;-58
2022/05/09 01:07:41;;;;;;;;;;;6.80;99.90;;;;;;4978840;28;20387;-58
2022/05/09 01:10:10;;;;;;;;;;;6.80;99.90;;;;;;4983114;28;20374;-59
2022/05/09 01:12:37;;;;;;;;;;;6.80;99.90;;;;;;4983148;28;19957;-59
2022/05/09 01:15:06;;;;;;;;;;;6.80;99.90;;;;;;4984662;28;20409;-59
2022/05/09 01:17:33;;;;;;;;;;;6.80;99.90;;;;;;4983643;28;20314;-58
2022/05/09 01:19:59;;;;;;;;;;;6.90;99.90;;;;;;4985038;28;20424;-59
2022/05/09 01:22:24;;;;;;;;;;;6.80;99.90;;;;;;4987310;28;19906;-58
2022/05/09 01:24:51;;;;;;;;;;;6.80;99.90;;;;;;4987935;28;19910;-58
2022/05/09 01:27:16;;;;;;;;;;;6.70;99.90;;;;;;4986929;28;19916;-58
2022/05/09 01:29:46;;;;;;;;;;;6.70;99.90;;;;;;4985954;28;19914;-59
2022/05/09 01:32:12;;;;;;;;;;;6.70;99.90;;;;;;4986587;28;20361;-58
2022/05/09 01:34:39;;;;;;;;;;;6.60;99.90;;;;;;4984210;28;20289;-58
2022/05/09 01:37:07;;;;;;;;;;;6.60;99.90;;;;;;4985868;28;20036;-58
2022/05/09 01:39:33;;;;;;;;;;;6.60;99.90;;;;;;4987911;28;19948;-59
2022/05/09 01:42:02;;;;;;;;;;;6.60;99.90;;;;;;4986223;28;20389;-58
2022/05/09 01:44:28;;;;;;;;;;;6.60;99.90;;;;;;4987041;28;19909;-58
2022/05/09 01:49:40;;;;;;;;;;;6.50;99.90;;;;;;4985875;28;19920;-59
2022/05/09 01:52:07;;;;;;;;;;;6.40;99.90;;;;;;5016949;28;19964;-58
2022/05/09 01:54:33;;;;;;;;;;;6.30;99.90;;;;;;4984728;28;20300;-58
2022/05/09 01:56:59;;;;;;;;;;;6.30;99.90;;;;;;4988450;28;20271;-58
2022/05/09 01:59:24;;;;;;;;;;;6.30;99.90;;;;;;4981383;28;19937;-58
2022/05/09 02:01:59;;;;;;;;;;;6.30;99.90;;;;;;4989758;28;20753;-58
2022/05/09 02:04:25;;;;;;;;;;;6.20;99.90;;;;;;4988151;28;20008;-58
2022/05/09 02:06:51;;;;;;;;;;;6.30;99.90;;;;;;4989852;28;20008;-58
2022/05/09 02:09:17;;;;;;;;;;;6.30;99.90;;;;;;4987880;28;20365;-59
2022/05/09 02:11:43;;;;;;;;;;;6.30;99.90;;;;;;4985431;28;20325;-58
2022/05/09 02:14:08;;;;;;;;;;;6.30;99.90;;;;;;4988100;28;20218;-58
2022/05/09 02:16:34;;;;;;;;;;;6.30;99.90;;;;;;4987102;28;19917;-58
2022/05/09 02:19:00;;;;;;;;;;;6.20;99.90;;;;;;4988216;28;20282;-59
2022/05/09 02:21:25;;;;;;;;;;;6.10;99.90;;;;;;4986882;28;19978;-59
2022/05/09 02:23:51;;;;;;;;;;;6.10;99.90;;;;;;4988001;28;19964;-58
2022/05/09 02:26:16;;;;;;;;;;;6.10;99.90;;;;;;4987643;28;19914;-59
2022/05/09 02:28:42;;;;;;;;;;;6.10;99.90;;;;;;4987311;28;20020;-58
2022/05/09 02:31:07;;;;;;;;;;;6.00;99.90;;;;;;4985632;28;20008;-59
2022/05/09 02:33:33;;;;;;;;;;;6.00;99.90;;;;;;4983781;28;19922;-58
2022/05/09 02:35:58;;;;;;;;;;;6.00;99.90;;;;;;4987556;28;19914;-58
2022/05/09 02:38:24;;;;;;;;;;;5.90;99.90;;;;;;4985597;28;19940;-58
2022/05/09 02:40:51;;;;;;;;;;;5.90;99.90;;;;;;4987440;28;19952;-58
2022/05/09 02:43:16;;;;;;;;;;;6.00;99.90;;;;;;4990164;28;20324;-59
2022/05/09 02:45:41;;;;;;;;;;;5.90;99.90;;;;;;4989464;28;19910;-59
2022/05/09 02:48:07;;;;;;;;;;;5.90;99.90;;;;;;4987850;28;20386;-59
2022/05/09 02:50:33;;;;;;;;;;;5.80;99.90;;;;;;4987102;28;19917;-58
2022/05/09 02:52:58;;;;;;;;;;;5.80;99.90;;;;;;4991697;28;19924;-59
2022/05/09 02:55:24;;;;;;;;;;;6.00;99.90;;;;;;4987442;28;19914;-58
2022/05/09 02:57:50;;;;;;;;;;;6.00;99.90;;;;;;4987293;28;20409;-58
2022/05/09 03:00:18;;;;;;;;;;;6.10;99.90;;;;;;4986867;28;19932;-58
2022/05/09 03:04:38;;;;;;;;;;;6.00;99.90;;;;;;5011584;28;19913;-58
2022/05/09 03:05:30;;;;;;;;;;;5.90;99.90;;;;;;4984036;28;19909;-58
2022/05/09 03:07:56;;;;;;;;;;;5.80;99.90;;;;;;4986381;28;19910;-58
2022/05/09 03:10:23;;;;;;;;;;;5.80;99.90;;;;;;4986798;28;19910;-58
2022/05/09 03:12:49;;;;;;;;;;;5.80;99.90;;;;;;4984236;28;20234;-58
2022/05/09 03:15:16;;;;;;;;;;;5.70;99.90;;;;;;4986607;28;19921;-58
2022/05/09 03:17:41;;;;;;;;;;;5.60;99.90;;;;;;4981623;28;19932;-58
2022/05/09 03:20:07;;;;;;;;;;;5.70;99.90;;;;;;4985867;28;20398;-59
2022/05/09 03:22:32;;;;;;;;;;;5.60;99.90;;;;;;4989341;28;19905;-59
2022/05/09 03:24:58;;;;;;;;;;;5.60;99.90;;;;;;4990100;28;20354;-58
2022/05/09 03:27:24;;;;;;;;;;;5.70;99.90;;;;;;4987386;28;20358;-59
2022/05/09 03:29:49;;;;;;;;;;;5.70;99.90;;;;;;4984044;28;19996;-58
2022/05/09 03:32:15;;;;;;;;;;;5.60;99.90;;;;;;4986799;28;19920;-58
2022/05/09 03:34:40;;;;;;;;;;;5.50;99.90;;;;;;4986587;28;20419;-58
2022/05/09 03:37:06;;;;;;;;;;;5.60;99.90;;;;;;4986737;28;19909;-58
2022/05/09 03:39:32;;;;;;;;;;;5.50;99.90;;;;;;4986322;28;19955;-59
2022/05/09 03:41:57;;;;;;;;;;;5.50;99.90;;;;;;4985483;28;19914;-58
2022/05/09 03:44:23;;;;;;;;;;;5.50;99.90;;;;;;4986535;28;19910;-59
2022/05/09 03:46:48;;;;;;;;;;;5.50;99.90;;;;;;4985772;28;20063;-58
2022/05/09 03:49:14;;;;;;;;;;;5.50;99.90;;;;;;4985448;28;19910;-58
2022/05/09 03:51:39;;;;;;;;;;;5.50;99.90;;;;;;4986922;28;19969;-58
2022/05/09 03:54:05;;;;;;;;;;;5.40;99.90;;;;;;4985036;28;20302;-58
2022/05/09 03:56:30;;;;;;;;;;;5.40;99.90;;;;;;4984682;28;19910;-58
2022/05/09 03:58:56;;;;;;;;;;;5.60;99.90;;;;;;4985438;28;19909;-58
2022/05/09 04:01:21;;;;;;;;;;;5.60;99.90;;;;;;4983600;28;19913;-58
2022/05/09 04:03:47;;;;;;;;;;;5.70;99.90;;;;;;4987652;28;19936;-58
2022/05/09 04:06:12;;;;;;;;;;;5.60;99.90;;;;;;4988484;28;19942;-58
2022/05/09 04:08:38;;;;;;;;;;;5.70;99.90;;;;;;4986371;28;19914;-59
2022/05/09 04:11:04;;;;;;;;;;;5.70;99.90;;;;;;4985232;28;20297;-59
2022/05/09 04:13:29;;;;;;;;;;;5.80;99.90;;;;;;4986595;28;19910;-59
2022/05/09 04:18:40;;;;;;;;;;;5.70;99.90;;;;;;4983148;28;20052;-59
2022/05/09 04:21:07;;;;;;;;;;;5.70;99.90;;;;;;4983103;28;19910;-58
2022/05/09 04:23:33;;;;;;;;;;;5.80;99.90;;;;;;4996189;28;19914;-58
2022/05/09 04:25:59;;;;;;;;;;;5.80;99.90;;;;;;4983966;28;19920;-58
2022/05/09 04:28:24;;;;;;;;;;;5.90;99.90;;;;;;4984579;28;19910;-58
2022/05/09 04:30:50;;;;;;;;;;;5.90;99.90;;;;;;4982889;28;19920;-58
2022/05/09 04:33:16;;;;;;;;;;;6.00;99.90;;;;;;4985358;28;20691;-58
2022/05/09 04:35:42;;;;;;;;;;;6.10;99.90;;;;;;4983141;28;19921;-58
2022/05/09 04:38:12;;;;;;;;;;;6.10;99.90;;;;;;4985835;28;20362;-59
2022/05/09 04:40:38;;;;;;;;;;;6.10;99.90;;;;;;4984120;28;20388;-59
2022/05/09 04:43:04;;;;;;;;;;;6.30;99.90;;;;;;4985840;28;19906;-59
2022/05/09 04:45:30;;;;;;;;;;;6.40;99.90;;;;;;4987321;28;20309;-58
2022/05/09 04:47:56;;;;;;;;;;;6.40;99.90;;;;;;4987723;28;19910;-58
2022/05/09 04:50:23;;;;;;;;;;;6.50;99.90;;;;;;4985135;28;19909;-59
2022/05/09 04:52:48;;;;;;;;;;;6.60;99.90;;;;;;4988057;28;20000;-58
2022/05/09 04:55:15;;;;;;;;;;;6.70;99.90;;;;;;4986793;28;20013;-59
2022/05/09 04:57:41;;;;;;;;;;;6.70;99.90;;;;;;4983434;28;19917;-59
2022/05/09 05:00:08;;;;;;;;;;;6.80;99.90;;;;;;4983867;28;19914;-59
2022/05/09 05:02:34;;;;;;;;;;;6.80;99.90;;;;;;4995908;28;19921;-59
2022/05/09 05:04:59;;;;;;;;;;;6.90;99.90;;;;;;4991936;28;19910;-58
2022/05/09 05:07:25;;;;;;;;;;;6.90;99.90;;;;;;4988866;28;20428;-58
2022/05/09 05:09:50;;;;;;;;;;;7.00;99.90;;;;;;4989245;28;20456;-59
2022/05/09 05:12:16;;;;;;;;;;;7.10;99.90;;;;;;4988867;28;20489;-59
2022/05/09 05:14:41;;;;;;;;;;;7.10;99.90;;;;;;4991384;28;20353;-59
2022/05/09 05:17:07;;;;;;;;;;;7.50;99.90;;;;;;5002667;28;19964;-59
2022/05/09 05:19:34;;;;;;;;;;;7.60;99.90;;;;;;4991361;28;19920;-59
2022/05/09 05:22:00;;;;;;;;;;;7.70;99.90;;;;;;4991815;28;20037;-59
2022/05/09 05:24:27;;;;;;;;;;;7.80;99.90;;;;;;4993157;28;20273;-58
2022/05/09 05:26:54;;;;;;;;;;;7.90;99.90;;;;;;4991407;28;19920;-58
2022/05/09 05:29:19;;;;;;;;;;;8.10;99.90;;;;;;5022909;28;19920;-59
2022/05/09 05:31:45;;;;;;;;;;;8.30;99.90;;;;;;4988164;28;19917;-58
2022/05/09 05:34:10;;;;;;;;;;;8.40;99.90;;;;;;4991399;28;19928;-59
2022/05/09 05:36:36;;;;;;;;;;;8.60;99.90;;;;;;4989442;28;19916;-59
2022/05/09 05:39:03;;;;;;;;;;;8.60;99.90;;;;;;4988533;28;19951;-59
2022/05/09 05:41:29;;;;;;;;;;;8.60;99.90;;;;;;4986934;28;19914;-59
2022/05/09 05:43:54;;;;;;;;;;;8.70;99.90;;;;;;4991998;28;20512;-59
2022/05/09 05:46:20;;;;;;;;;;;8.90;99.90;;;;;;4989065;28;19917;-59
2022/05/09 05:48:45;;;;;;;;;;;9.10;99.90;;;;;;4981952;28;20285;-59
2022/05/09 05:51:12;;;;;;;;;;;9.40;99.90;;;;;;4984660;28;20330;-59
2022/05/09 05:53:37;;;;;;;;;;;9.60;99.90;;;;;;4985627;28;20020;-58
2022/05/09 05:56:03;;;;;;;;;;;10.00;99.90;;;;;;4984563;28;20005;-58
2022/05/09 05:58:29;;;;;;;;;;;10.10;99.90;;;;;;4989949;28;19988;-59
2022/05/09 06:00:55;;;;;;;;;;;10.20;99.90;;;;;;4984483;28;19917;-59
2022/05/09 06:03:20;;;;;;;;;;;10.40;99.90;;;;;;4989609;28;19925;-58
2022/05/09 06:05:46;;;;;;;;;;;10.50;99.90;;;;;;4984775;28;19955;-59
2022/05/09 06:08:12;;;;;;;;;;;10.60;99.90;;;;;;4993652;28;19910;-58
2022/05/09 06:10:38;;;;;;;;;;;10.90;99.90;;;;;;4982242;28;20318;-59
2022/05/09 06:13:05;;;;;;;;;;;10.90;99.90;;;;;;4986347;28;19925;-58
2022/05/09 06:15:33;;;;;;;;;;;10.90;99.90;;;;;;4988648;28;19913;-58
2022/05/09 06:18:00;;;;;;;;;;;11.00;99.90;;;;;;4984787;28;20310;-58
2022/05/09 06:20:26;;;;;;;;;;;10.80;99.90;;;;;;4985193;28;19920;-59
2022/05/09 06:22:54;;;;;;;;;;;10.70;99.90;;;;;;4981145;28;19910;-58
2022/05/09 06:25:20;;;;;;;;;;;10.90;99.90;;;;;;4985061;28;19914;-60
2022/05/09 06:27:46;;;;;;;;;;;11.00;99.90;;;;;;4983351;28;20130;-59
2022/05/09 06:30:12;;;;;;;;;;;11.10;99.90;;;;;;4983300;28;20448;-59
2022/05/09 06:32:38;;;;;;;;;;;11.00;99.90;;;;;;4981427;28;20420;-59
2022/05/09 06:35:05;;;;;;;;;;;11.20;99.90;;;;;;4984419;28;19913;-59
2022/05/09 06:37:33;;;;;;;;;;;11.40;99.90;;;;;;4984426;28;19913;-59
2022/05/09 06:39:58;;;;;;;;;;;11.50;99.90;;;;;;4981490;28;19914;-59
2022/05/09 06:42:24;;;;;;;;;;;11.60;99.90;;;;;;4984886;28;19921;-59
2022/05/09 06:44:49;;;;;;;;;;;11.80;99.90;;;;;;4985937;28;19948;-59
2022/05/09 06:47:15;;;;;;;;;;;12.00;99.90;;;;;;4985426;28;20348;-59
2022/05/09 06:49:41;;;;;;;;;;;12.20;99.90;;;;;;5016623;28;19920;-58
2022/05/09 06:52:06;;;;;;;;;;;12.30;99.90;;;;;;4981259;28;19909;-59
2022/05/09 06:54:32;;;;;;;;;;;12.40;99.90;;;;;;4983688;28;19913;-58
2022/05/09 06:56:57;;;;;;;;;;;12.60;99.90;;;;;;4985778;28;19918;-58
2022/05/09 06:59:23;;;;;;;;;;;12.60;99.90;;;;;;4982851;28;19909;-59
2022/05/09 07:01:50;;;;;;;;;;;12.80;99.90;;;;;;4983866;28;19918;-60
2022/05/09 07:04:16;;;;;;;;;;;13.00;99.90;;;;;;4984022;28;19932;-59
2022/05/09 07:06:41;;;;;;;;;;;13.20;99.90;;;;;;4984282;28;19910;-59
2022/05/09 07:09:10;;;;;;;;;;;13.30;99.90;;;;;;4979836;28;19921;-59
2022/05/09 07:11:36;;;;;;;;;;;13.50;99.90;;;;;;4984097;28;19914;-59
2022/05/09 07:14:01;;;;;;;;;;;13.60;99.90;;;;;;4986668;28;19920;-59
2022/05/09 07:16:27;;;;;;;;;;;13.80;99.90;;;;;;4985426;28;20285;-59
2022/05/09 07:18:52;;;;;;;;;;;14.00;99.90;;;;;;4982909;28;19998;-59
2022/05/09 07:21:19;;;;;;;;;;;14.10;99.90;;;;;;4981891;28;19910;-59
2022/05/09 07:23:44;;;;;;;;;;;14.30;99.90;;;;;;4983966;28;19909;-59
2022/05/09 07:26:10;;;;;;;;;;;14.40;99.90;;;;;;4983125;28;19931;-58
2022/05/09 07:28:35;;;;;;;;;;;14.60;99.90;;;;;;4986132;28;19997;-59
2022/05/09 07:31:01;;;;;;;;;;;14.60;99.90;;;;;;4984182;28;19916;-59
2022/05/09 07:33:28;;;;;;;;;;;14.80;99.90;;;;;;4979517;28;19926;-59
2022/05/09 07:35:53;;;;;;;;;;;14.90;99.90;;;;;;4985127;28;19916;-60
2022/05/09 07:38:19;;;;;;;;;;;15.10;99.90;;;;;;4985136;28;19909;-59
2022/05/09 07:40:45;;;;;;;;;;;15.20;99.90;;;;;;4983246;28;19909;-59
2022/05/09 07:43:14;;;;;;;;;;;15.40;99.90;;;;;;4985899;28;19917;-59
2022/05/09 07:45:40;;;;;;;;;;;15.70;99.90;;;;;;4983547;28;19932;-59
2022/05/09 07:48:06;;;;;;;;;;;15.80;99.90;;;;;;4984979;28;20421;-59
2022/05/09 07:50:32;;;;;;;;;;;15.90;99.90;;;;;;4983386;28;19989;-59
2022/05/09 07:52:57;;;;;;;;;;;16.00;99.90;;;;;;4981863;28;19920;-59
2022/05/09 07:55:23;;;;;;;;;;;16.00;99.90;;;;;;4984073;28;19914;-58
2022/05/09 07:57:48;;;;;;;;;;;16.20;99.90;;;;;;4980247;28;19917;-59
2022/05/09 08:00:14;;;;;;;;;;;16.30;99.90;;;;;;4982464;28;19914;-59
2022/05/09 08:02:42;;;;;;;;;;;16.50;99.90;;;;;;4982332;28;19925;-59
2022/05/09 08:05:10;;;;;;;;;;;16.80;99.90;;;;;;4984176;28;19913;-59
2022/05/09 08:07:36;;;;;;;;;;;17.00;99.90;;;;;;4984952;28;19960;-59
2022/05/09 08:10:02;;;;;;;;;;;17.40;99.90;;;;;;4983500;28;20451;-59
2022/05/09 08:12:27;;;;;;;;;;;18.00;99.90;;;;;;4982997;28;19968;-59
2022/05/09 08:14:53;;;;;;;;;;;18.70;99.90;;;;;;4981980;28;19922;-59
2022/05/09 08:17:18;;;;;;;;;;;19.40;99.90;;;;;;4985692;28;20204;-60
2022/05/09 08:19:45;;;;;;;;;;;19.10;99.90;;;;;;4983583;28;19936;-60
2022/05/09 08:22:10;;;;;;;;;;;19.50;99.90;;;;;;4983830;28;19920;-59
2022/05/09 08:24:36;;;;;;;;;;;20.00;99.90;;;;;;4983473;28;19918;-59
2022/05/09 08:27:01;;;;;;;;;;;20.80;98.60;;;;;;4984031;28;19965;-60
2022/05/09 08:29:27;;;;;;;;;;;21.50;97.30;;;;;;4982005;28;19918;-60
2022/05/09 08:31:52;;;;;;;;;;;20.60;97.60;;;;;;4983529;28;19921;-60
2022/05/09 08:34:18;;;;;;;;;;;20.50;99.20;;;;;;4984513;28;19918;-59
2022/05/09 08:36:48;;;;;;;;;;;20.20;99.90;;;;;;4983180;28;19917;-59
2022/05/09 08:39:14;;;;;;;;;;;21.60;97.50;;;;;;4983637;28;20040;-59
2022/05/09 08:41:54;;;;;;;;;;;21.20;97.70;;;;;;4983873;28;20057;-60
2022/05/09 08:44:27;;;;;;;;;;;20.90;97.70;;;;;;4987681;28;19918;-60
2022/05/09 08:47:11;;;;;;;;;;;21.40;97.60;;;;;;5014504;28;19910;-59
2022/05/09 08:49:36;;;;;;;;;;;22.20;96.40;;;;;;4982237;28;20411;-60
2022/05/09 08:52:21;;;;;;;;;;;23.30;94.50;;;;;;4982818;28;19910;-60
2022/05/09 08:54:48;;;;;;;;;;;24.30;92.00;;;;;;4982954;28;20427;-59
2022/05/09 08:57:16;;;;;;;;;;;23.80;90.50;;;;;;4984528;28;19921;-59
2022/05/09 08:59:49;;;;;;;;;;;22.00;93.80;;;;;;4977603;28;19914;-59
2022/05/09 09:02:33;;;;;;;;;;;21.80;95.00;;;;;;4978893;28;20005;-59
2022/05/09 09:04:59;;;;;;;;;;;22.50;92.80;;;;;;4983155;28;19910;-60
2022/05/09 09:07:36;;;;;;;;;;;23.30;92.60;;;;;;4980641;28;19910;-60
2022/05/09 09:10:07;;;;;;;;;;;23.60;92.60;;;;;;4981742;28;19980;-60
2022/05/09 09:12:33;;;;;;;;;;;23.30;93.30;;;;;;4983556;28;20246;-60
2022/05/09 09:15:01;;;;;;;;;;;22.80;92.70;;;;;;4986027;28;19924;-60
2022/05/09 09:17:45;;;;;;;;;;;23.80;91.60;;;;;;4979656;28;19917;-59
2022/05/09 09:20:22;;;;;;;;;;;23.70;92.70;;;;;;4979251;28;20016;-60
2022/05/09 09:22:50;;;;;;;;;;;23.20;93.10;;;;;;4979680;28;19918;-59
2022/05/09 09:25:24;;;;;;;;;;;22.50;93.40;;;;;;4982973;28;19910;-59
2022/05/09 09:27:53;;;;;;;;;;;23.90;93.40;;;;;;4985120;28;19933;-60
2022/05/09 09:30:21;;;;;;;;;;;24.00;92.10;;;;;;4983591;28;20479;-60
2022/05/09 09:32:53;;;;;;;;;;;25.20;89.90;;;;;;4982696;28;19925;-60
2022/05/09 09:35:25;;;;;;;;;;;24.90;90.90;;;;;;4982074;28;20281;-59
2022/05/09 09:37:50;;;;;;;;;;;24.80;89.60;;;;;;4980326;28;19929;-60
2022/05/09 09:40:16;;;;;;;;;;;23.70;91.80;;;;;;4983258;28;19967;-60
2022/05/09 09:42:42;;;;;;;;;;;24.60;91.10;;;;;;4982498;28;19918;-59
2022/05/09 09:45:28;;;;;;;;;;;25.10;91.10;;;;;;4985213;28;19914;-60
2022/05/09 09:48:17;;;;;;;;;;;24.80;89.70;;;;;;4984350;28;19961;-59
2022/05/09 09:51:03;;;;;;;;;;;24.70;90.10;;;;;;4985060;28;19910;-59
2022/05/09 09:53:29;;;;;;;;;;;24.20;90.80;;;;;;4982518;28;19910;-59
2022/05/09 09:56:05;;;;;;;;;;;24.70;91.20;;;;;;4985987;28;20324;-60
2022/05/09 09:58:31;;;;;;;;;;;25.60;86.20;;;;;;4986713;28;20325;-59
2022/05/09 10:01:05;;;;;;;;;;;25.50;86.60;;;;;;4983369;28;19914;-60
2022/05/09 10:03:31;;;;;;;;;;;27.00;83.80;;;;;;4983678;28;20357;-59
2022/05/09 10:05:58;;;;;;;;;;;26.60;81.00;;;;;;4986272;28;20285;-60
2022/05/09 10:08:28;;;;;;;;;;;25.70;85.60;;;;;;4989430;28;19928;-59
2022/05/09 10:11:04;;;;;;;;;;;25.80;84.70;;;;;;4987988;28;19916;-60
2022/05/09 10:13:34;;;;;;;;;;;26.70;84.20;;;;;;4985159;28;20309;-60
2022/05/09 10:16:01;;;;;;;;;;;24.20;88.60;;;;;;4985871;28;19997;-60
2022/05/09 10:18:30;;;;;;;;;;;24.50;88.20;;;;;;4987218;28;20372;-60
2022/05/09 10:20:55;;;;;;;;;;;24.50;87.80;;;;;;4986162;28;19910;-60
2022/05/09 10:26:09;;;;;;;;;;;26.00;85.10;;;;;;4986139;28;19916;-59
2022/05/09 10:28:36;;;;;;;;;;;26.50;84.50;;;;;;4983543;28;19952;-60
2022/05/09 10:31:06;;;;;;;;;;;27.60;82.30;;;;;;4981790;28;20390;-60
2022/05/09 10:33:41;;;;;;;;;;;25.80;80.90;;;;;;4996572;28;19961;-60
2022/05/09 10:36:27;;;;;;;;;;;24.60;85.90;;;;;;4981879;28;20396;-59
2022/05/09 10:38:56;;;;;;;;;;;25.70;85.10;;;;;;4984120;28;19913;-59
2022/05/09 10:41:28;;;;;;;;;;;27.20;81.00;;;;;;4985680;28;19964;-59
2022/05/09 10:43:59;;;;;;;;;;;28.90;76.80;;;;;;4985463;28;19913;-60
2022/05/09 10:46:32;;;;;;;;;;;29.90;75.50;;;;;;4986538;28;19924;-60
2022/05/09 10:48:59;;;;;;;;;;;29.30;74.00;;;;;;4987388;28;20535;-60
2022/05/09 10:51:51;;;;;;;;;;;28.60;75.20;;;;;;4986952;28;19909;-60
2022/05/09 10:54:22;;;;;;;;;;;29.80;73.10;;;;;;4983531;28;19957;-60
2022/05/09 10:56:53;;;;;;;;;;;28.50;76.10;;;;;;4983319;28;20421;-59
2022/05/09 10:59:19;;;;;;;;;;;27.50;75.30;;;;;;4982903;28;19922;-60
2022/05/09 11:01:56;;;;;;;;;;;28.40;76.00;;;;;;4984621;28;20214;-59
2022/05/09 11:04:23;;;;;;;;;;;29.50;74.30;;;;;;4979677;28;19910;-60
2022/05/09 11:07:00;;;;;;;;;;;28.00;75.20;;;;;;4983207;28;20004;-61
2022/05/09 11:09:28;;;;;;;;;;;27.20;76.70;;;;;;4980937;28;20062;-60
2022/05/09 11:12:12;;;;;;;;;;;28.40;74.10;;;;;;4982924;28;19932;-59
2022/05/09 11:14:45;;;;;;;;;;;27.50;74.90;;;;;;4982885;28;20193;-59
2022/05/09 11:17:20;;;;;;;;;;;27.60;77.40;;;;;;4984391;28;19914;-60
2022/05/09 11:20:04;;;;;;;;;;;28.80;73.90;;;;;;4981913;28;20341;-59
2022/05/09 11:22:30;;;;;;;;;;;27.60;73.50;;;;;;4983370;28;19916;-60
2022/05/09 11:25:14;;;;;;;;;;;27.10;77.20;;;;;;4977487;28;20012;-60
2022/05/09 11:27:39;;;;;;;;;;;28.30;75.40;;;;;;4979092;28;19906;-60
2022/05/09 11:30:14;;;;;;;;;;;27.00;75.10;;;;;;4985339;28;19917;-60
2022/05/09 11:32:46;;;;;;;;;;;27.60;75.30;;;;;;4981637;28;19992;-59
2022/05/09 11:35:17;;;;;;;;;;;27.60;75.30;;;;;;4984070;28;20267;-60
2022/05/09 11:37:54;;;;;;;;;;;27.30;77.00;;;;;;4985153;28;19945;-59
2022/05/09 11:40:27;;;;;;;;;;;29.40;75.70;;;;;;4981359;28;19917;-59
2022/05/09 11:45:58;;;;;;;;;;;29.10;71.70;;;;;;4982629;28;19920;-60
2022/05/09 11:48:24;;;;;;;;;;;29.20;72.40;;;;;;4981100;28;20012;-60
2022/05/09 11:51:12;;;;;;;;;;;29.00;70.00;;;;;;4982723;28;19936;-60
2022/05/09 11:53:39;;;;;;;;;;;25.90;74.50;;;;;;4981473;28;19910;-60
2022/05/09 11:56:05;;;;;;;;;;;26.60;75.00;;;;;;4982743;28;19924;-60
2022/05/09 11:58:33;;;;;;;;;;;28.00;73.60;;;;;;4983322;28;19909;-60
2022/05/09 12:00:58;;;;;;;;;;;29.80;71.00;;;;;;5008458;28;19963;-60
2022/05/09 12:03:42;;;;;;;;;;;30.40;68.50;;;;;;4989545;28;19914;-59
2022/05/09 12:06:12;;;;;;;;;;;29.40;68.40;;;;;;4984971;28;20532;-60
2022/05/09 12:08:44;;;;;;;;;;;28.90;70.40;;;;;;4986816;28;19933;-60
2022/05/09 12:11:19;;;;;;;;;;;28.30;69.20;;;;;;4988345;28;19930;-60
2022/05/09 12:13:48;;;;;;;;;;;26.80;71.30;;;;;;4986550;28;19916;-59
2022/05/09 12:16:35;;;;;;;;;;;26.90;72.40;;;;;;4983336;28;19976;-60
2022/05/09 12:19:03;;;;;;;;;;;27.60;71.80;;;;;;4979982;28;19952;-61
2022/05/09 12:21:41;;;;;;;;;;;28.30;70.10;;;;;;4983402;28;19923;-60
2022/05/09 12:24:18;;;;;;;;;;;28.20;69.20;;;;;;5000433;28;19968;-59
2022/05/09 12:26:45;;;;;;;;;;;27.80;69.90;;;;;;4981896;28;19921;-59
2022/05/09 12:29:19;;;;;;;;;;;28.50;68.70;;;;;;4986394;28;19919;-59
2022/05/09 12:31:47;;;;;;;;;;;27.30;69.60;;;;;;4982024;28;19936;-60
2022/05/09 12:34:14;;;;;;;;;;;27.90;69.80;;;;;;4987245;28;19921;-60
2022/05/09 12:36:40;;;;;;;;;;;27.70;69.10;;;;;;4985122;28;19992;-60
2022/05/09 12:39:13;;;;;;;;;;;26.60;71.20;;;;;;4984849;28;19910;-59
2022/05/09 12:41:41;;;;;;;;;;;27.90;72.10;;;;;;4981062;28;19914;-60
2022/05/09 12:44:16;;;;;;;;;;;29.00;69.00;;;;;;4985967;28;19935;-60
2022/05/09 12:46:45;;;;;;;;;;;28.90;68.40;;;;;;4979611;28;19909;-60
2022/05/09 12:49:11;;;;;;;;;;;27.90;70.90;;;;;;4985308;28;19981;-60
2022/05/09 12:52:06;;;;;;;;;;;27.60;69.70;;;;;;4988366;28;19917;-60
2022/05/09 12:54:33;;;;;;;;;;;27.10;71.60;;;;;;4981236;28;19922;-60
2022/05/09 12:57:00;;;;;;;;;;;28.40;68.90;;;;;;4989128;28;19948;-60
2022/05/09 12:59:27;;;;;;;;;;;28.00;69.30;;;;;;4980679;28;20627;-60
2022/05/09 13:01:57;;;;;;;;;;;29.50;68.10;;;;;;4984896;28;20004;-60
2022/05/09 13:04:26;;;;;;;;;;;29.40;66.40;;;;;;4992318;28;19960;-59
2022/05/09 13:06:54;;;;;;;;;;;29.40;67.30;;;;;;4985160;28;19920;-60
2022/05/09 13:09:22;;;;;;;;;;;31.00;64.00;;;;;;4983003;28;20372;-60
2022/05/09 13:12:01;;;;;;;;;;;32.10;62.80;;;;;;4983406;28;19913;-60
2022/05/09 13:14:47;;;;;;;;;;;31.50;63.10;;;;;;4984903;28;19914;-61
2022/05/09 13:17:14;;;;;;;;;;;31.50;63.30;;;;;;4985099;28;19922;-60
2022/05/09 13:19:47;;;;;;;;;;;31.60;62.10;;;;;;4977297;28;19918;-60
2022/05/09 13:22:18;;;;;;;;;;;31.50;62.50;;;;;;4983479;28;20024;-60
2022/05/09 13:24:44;;;;;;;;;;;32.70;60.50;;;;;;4989190;28;19910;-60
2022/05/09 13:27:09;;;;;;;;;;;34.20;59.50;;;;;;4986122;28;20462;-60
2022/05/09 13:29:38;;;;;;;;;;;33.80;58.80;;;;;;4985822;28;19921;-60
2022/05/09 13:32:04;;;;;;;;;;;34.40;57.40;;;;;;4988024;28;19914;-60
2022/05/09 13:34:31;;;;;;;;;;;32.60;58.30;;;;;;4989450;28;19914;-60
2022/05/09 13:36:57;;;;;;;;;;;29.90;60.70;;;;;;4989304;28;19917;-60
2022/05/09 13:39:28;;;;;;;;;;;29.30;62.80;;;;;;4987860;28;19909;-60
2022/05/09 13:41:54;;;;;;;;;;;28.40;63.70;;;;;;4986697;28;19910;-60
2022/05/09 13:44:21;;;;;;;;;;;28.70;62.00;;;;;;4992255;28;20285;-60
2022/05/09 13:46:47;;;;;;;;;;;28.50;64.80;;;;;;4986033;28;19910;-61
2022/05/09 13:49:14;;;;;;;;;;;31.00;61.60;;;;;;4987129;28;19959;-60
2022/05/09 13:51:41;;;;;;;;;;;30.60;62.50;;;;;;4986840;28;19916;-61
2022/05/09 13:54:08;;;;;;;;;;;29.70;60.80;;;;;;4988447;28;19924;-60
2022/05/09 13:56:34;;;;;;;;;;;28.70;62.30;;;;;;4988874;28;19917;-60
2022/05/09 13:59:03;;;;;;;;;;;28.10;63.50;;;;;;4986420;28;19913;-60
2022/05/09 14:01:45;;;;;;;;;;;29.00;60.80;;;;;;4984261;28;20047;-60
2022/05/09 14:04:14;;;;;;;;;;;27.50;64.20;;;;;;4982809;28;19945;-60
2022/05/09 14:06:39;;;;;;;;;;;27.40;64.70;;;;;;4988012;28;20000;-60
2022/05/09 14:09:14;;;;;;;;;;;29.60;62.80;;;;;;4984821;28;19996;-60
2022/05/09 14:11:50;;;;;;;;;;;30.50;59.50;;;;;;4985613;28;20365;-60
2022/05/09 14:14:33;;;;;;;;;;;29.50;60.20;;;;;;4986038;28;19914;-60
2022/05/09 14:17:00;;;;;;;;;;;29.00;62.20;;;;;;4985812;28;20331;-60
2022/05/09 14:19:28;;;;;;;;;;;30.50;60.30;;;;;;4987003;28;19917;-59
2022/05/09 14:21:58;;;;;;;;;;;30.30;59.90;;;;;;4984810;28;19914;-60
2022/05/09 14:24:27;;;;;;;;;;;29.50;59.20;;;;;;4986289;28;19917;-60
2022/05/09 14:29:40;;;;;;;;;;;27.20;64.50;;;;;;4981822;28;20636;-59
2022/05/09 14:32:13;;;;;;;;;;;26.30;65.90;;;;;;4987423;28;20056;-61
2022/05/09 14:34:38;;;;;;;;;;;25.40;67.00;;;;;;4986607;28;20012;-60
2022/05/09 14:37:07;;;;;;;;;;;25.70;67.50;;;;;;4985456;28;20326;-60
2022/05/09 14:39:33;;;;;;;;;;;25.90;66.40;;;;;;4983543;28;20258;-60
2022/05/09 14:42:25;;;;;;;;;;;26.40;65.60;;;;;;4982460;28;19937;-60